Time;durP1;ratioP1;P1;durP2;ratioP2;P2;SDS_P1;SDS_P2;PMS_P1;PMS_P2;Temp;Humidity;BMP_temperature;BMP_pressure;BME280_temperature;BME280_humidity;BME280_pressure;Samples;Min_cycle;Max_cycle;Signal;HPM_P1;HPM_P2
2022/02/18 00:00:06;;;;;;;17.30;3.53;;;;;;;-145.14;100.00;70583.66;4979135;28;20329;-76
2022/02/18 00:02:32;;;;;;;18.70;3.97;;;;;;;-145.14;100.00;70583.66;4978235;28;20189;-75
2022/02/18 00:04:58;;;;;;;19.40;4.40;;;;;;;-145.14;100.00;70583.66;4980362;28;20450;-75
2022/02/18 00:07:23;;;;;;;17.73;4.27;;;;;;;-145.14;100.00;70583.66;4983005;28;20193;-76
2022/02/18 00:09:48;;;;;;;17.93;3.50;;;;;;;-145.14;100.00;70583.66;4977413;28;20666;-75
2022/02/18 00:12:14;;;;;;;13.33;3.30;;;;;;;-145.14;100.00;70583.66;4979745;28;20268;-75
2022/02/18 00:14:40;;;;;;;14.60;3.30;;;;;;;-145.14;100.00;70583.66;4982103;28;20189;-75
2022/02/18 00:17:06;;;;;;;12.20;3.17;;;;;;;-145.14;100.00;70583.66;4976641;28;20221;-74
2022/02/18 00:19:32;;;;;;;18.93;3.80;;;;;;;-145.14;100.00;70583.66;4978922;28;20189;-75
2022/02/18 00:21:58;;;;;;;16.00;3.20;;;;;;;-145.14;100.00;70583.66;4978513;28;20607;-75
2022/02/18 00:24:23;;;;;;;17.10;3.50;;;;;;;-145.14;100.00;70583.66;4979252;28;20445;-75
2022/02/18 00:26:49;;;;;;;15.37;3.03;;;;;;;-145.14;100.00;70583.66;4981302;28;20209;-75
2022/02/18 00:29:14;;;;;;;14.80;3.23;;;;;;;-145.14;100.00;70583.66;4980233;28;20210;-75
2022/02/18 00:31:42;;;;;;;14.73;3.43;;;;;;;-145.14;100.00;70583.66;4980273;28;20186;-75
2022/02/18 00:34:08;;;;;;;18.53;3.00;;;;;;;-145.14;100.00;70583.66;4980835;28;20217;-75
2022/02/18 00:36:33;;;;;;;11.10;3.23;;;;;;;-145.14;100.00;70583.66;4972873;28;20896;-76
2022/02/18 00:38:59;;;;;;;17.97;3.27;;;;;;;-145.14;100.00;70583.66;4977721;28;20197;-76
2022/02/18 00:41:25;;;;;;;13.37;3.30;;;;;;;-145.14;100.00;70583.66;4974456;28;20204;-75
2022/02/18 00:43:50;;;;;;;16.57;2.80;;;;;;;-145.14;100.00;70583.66;4979500;28;20174;-75
2022/02/18 00:46:16;;;;;;;18.50;3.23;;;;;;;-145.14;100.00;70583.66;4978805;28;20468;-75
2022/02/18 00:48:41;;;;;;;14.50;2.93;;;;;;;-145.14;100.00;70583.66;4977560;28;20200;-75
2022/02/18 00:51:07;;;;;;;14.43;3.37;;;;;;;-145.14;100.00;70583.66;4978740;28;20261;-75
2022/02/18 00:53:33;;;;;;;16.10;2.93;;;;;;;-145.14;100.00;70583.66;4975627;28;20304;-75
2022/02/18 00:55:59;;;;;;;14.33;3.17;;;;;;;-145.14;100.00;70583.66;4977335;28;20218;-75
2022/02/18 00:58:25;;;;;;;17.40;2.87;;;;;;;-145.14;100.00;70583.66;4978209;28;20445;-74
2022/02/18 01:00:51;;;;;;;11.73;3.30;;;;;;;-145.14;100.00;70583.66;4977204;28;20311;-75
2022/02/18 01:03:18;;;;;;;16.00;3.87;;;;;;;-145.14;100.00;70583.66;4978152;28;20984;-75
2022/02/18 01:05:44;;;;;;;14.13;3.77;;;;;;;-145.14;100.00;70583.66;4973730;28;20462;-75
2022/02/18 01:08:09;;;;;;;13.70;3.60;;;;;;;-145.14;100.00;70583.66;4974031;28;20449;-75
2022/02/18 01:10:35;;;;;;;17.87;5.30;;;;;;;-145.14;100.00;70583.66;4989157;28;20247;-75
2022/02/18 01:13:01;;;;;;;15.87;3.87;;;;;;;-145.14;100.00;70583.66;4975494;28;20229;-75
2022/02/18 01:15:26;;;;;;;18.50;4.20;;;;;;;-145.14;100.00;70583.66;4976590;28;20468;-75
2022/02/18 01:17:51;;;;;;;17.37;3.57;;;;;;;-145.14;100.00;70583.66;4978488;28;20264;-75
2022/02/18 01:20:17;;;;;;;18.33;3.67;;;;;;;-145.14;100.00;70583.66;4976249;28;20222;-76
2022/02/18 01:22:43;;;;;;;15.20;3.60;;;;;;;-145.14;100.00;70583.66;4977808;28;20276;-75
2022/02/18 01:25:09;;;;;;;13.50;3.10;;;;;;;-145.14;100.00;70583.66;4976232;28;20697;-76
2022/02/18 01:27:36;;;;;;;23.23;3.70;;;;;;;-145.14;100.00;70583.66;4976199;28;20186;-76
2022/02/18 01:30:02;;;;;;;15.70;3.90;;;;;;;-145.14;100.00;70583.66;4977826;28;20460;-75
2022/02/18 01:32:28;;;;;;;15.03;3.13;;;;;;;-145.14;100.00;70583.66;4976188;28;20729;-75
2022/02/18 01:34:54;;;;;;;14.70;3.70;;;;;;;-145.14;100.00;70583.66;4977489;28;20460;-75
2022/02/18 01:37:20;;;;;;;16.97;3.37;;;;;;;-145.14;100.00;70583.66;4975963;28;20213;-75
2022/02/18 01:39:45;;;;;;;13.90;3.37;;;;;;;-145.14;100.00;70583.66;4974765;28;20468;-76
2022/02/18 01:42:11;;;;;;;12.43;4.00;;;;;;;-145.14;100.00;70583.66;4980050;28;20213;-76
2022/02/18 01:44:42;;;;;;;16.93;3.30;;;;;;;-145.14;100.00;70583.66;4978655;28;20197;-75
2022/02/18 01:47:16;;;;;;;14.80;3.10;;;;;;;-145.14;100.00;70583.66;4977092;28;20628;-75
2022/02/18 01:49:43;;;;;;;12.57;3.20;;;;;;;-145.14;100.00;70583.66;4980368;28;20432;-75
2022/02/18 01:52:09;;;;;;;12.27;3.20;;;;;;;-145.14;100.00;70583.66;4981218;28;20465;-75
2022/02/18 01:54:35;;;;;;;13.60;3.10;;;;;;;-145.14;100.00;70583.66;4975041;28;20536;-75
2022/02/18 01:57:01;;;;;;;13.73;3.97;;;;;;;-145.14;100.00;70583.66;4975559;28;20843;-76
2022/02/18 01:59:28;;;;;;;15.50;4.10;;;;;;;-145.14;100.00;70583.66;4976276;28;20197;-76
2022/02/18 02:01:58;;;;;;;22.73;4.80;;;;;;;-145.14;100.00;70583.66;4975943;28;20463;-75
2022/02/18 02:04:25;;;;;;;12.80;3.73;;;;;;;-145.14;100.00;70583.66;4976464;28;20440;-75
2022/02/18 02:06:52;;;;;;;21.30;4.77;;;;;;;-145.14;100.00;70583.66;4975825;28;20472;-76
2022/02/18 02:09:18;;;;;;;17.20;4.03;;;;;;;-145.14;100.00;70583.66;4978179;28;20445;-75
2022/02/18 02:11:43;;;;;;;18.40;3.23;;;;;;;-145.14;100.00;70583.66;4977352;28;20445;-75
2022/02/18 02:14:09;;;;;;;12.30;3.20;;;;;;;-145.14;100.00;70583.66;4978369;28;20471;-75
2022/02/18 02:16:34;;;;;;;12.03;2.90;;;;;;;-145.14;100.00;70583.66;4975005;28;20218;-75
2022/02/18 02:19:00;;;;;;;9.83;2.90;;;;;;;-145.14;100.00;70583.66;4974719;28;20191;-75
2022/02/18 02:21:26;;;;;;;10.33;2.73;;;;;;;-145.14;100.00;70583.66;4976791;28;20773;-76
2022/02/18 02:23:53;;;;;;;19.10;3.23;;;;;;;-145.14;100.00;70583.66;4976937;28;20247;-75
2022/02/18 02:26:18;;;;;;;10.97;2.90;;;;;;;-145.14;100.00;70583.66;4975514;28;21042;-75
2022/02/18 02:28:44;;;;;;;15.03;2.60;;;;;;;-145.14;100.00;70583.66;4976046;28;20453;-75
2022/02/18 02:31:09;;;;;;;17.07;3.13;;;;;;;-145.14;100.00;70583.66;4990490;28;20182;-75
2022/02/18 02:33:35;;;;;;;11.80;3.07;;;;;;;-145.14;100.00;70583.66;4976254;28;20594;-75
2022/02/18 02:36:00;;;;;;;13.53;3.27;;;;;;;-145.14;100.00;70583.66;4976515;28;20670;-75
2022/02/18 02:38:26;;;;;;;9.10;2.47;;;;;;;-145.14;100.00;70583.66;4976526;28;20655;-75
2022/02/18 02:40:52;;;;;;;12.20;2.57;;;;;;;-145.14;100.00;70583.66;4975482;28;20301;-75
2022/02/18 02:43:17;;;;;;;9.30;2.60;;;;;;;-145.14;100.00;70583.66;4977239;28;21189;-74
2022/02/18 02:45:44;;;;;;;11.60;2.77;;;;;;;-145.14;100.00;70583.66;4972302;28;20234;-74
2022/02/18 02:48:09;;;;;;;9.70;2.27;;;;;;;-145.14;100.00;70583.66;4971278;28;20534;-75
2022/02/18 02:50:35;;;;;;;13.50;3.20;;;;;;;-145.14;100.00;70583.66;4971633;28;20440;-74
2022/02/18 02:53:00;;;;;;;16.00;2.83;;;;;;;-145.14;100.00;70583.66;4988494;28;20690;-75
2022/02/18 02:55:26;;;;;;;12.20;2.87;;;;;;;-145.14;100.00;70583.66;4972364;28;20216;-76
2022/02/18 02:57:51;;;;;;;16.90;3.40;;;;;;;-145.14;100.00;70583.66;4973857;28;20178;-74
2022/02/18 03:00:17;;;;;;;9.80;2.40;;;;;;;-145.14;100.00;70583.66;4973993;28;20574;-74
2022/02/18 03:02:44;;;;;;;12.23;2.60;;;;;;;-145.14;100.00;70583.66;4972918;28;20240;-75
2022/02/18 03:05:10;;;;;;;13.63;3.40;;;;;;;-145.14;100.00;70583.66;4973044;28;20451;-75
2022/02/18 03:07:37;;;;;;;15.00;3.90;;;;;;;-145.14;100.00;70583.66;4976024;28;20440;-75
2022/02/18 03:10:07;;;;;;;16.63;3.73;;;;;;;-145.14;100.00;70583.66;4974642;28;20456;-75
2022/02/18 03:12:33;;;;;;;9.50;3.30;;;;;;;-145.14;100.00;70583.66;4981384;28;20469;-75
2022/02/18 03:14:58;;;;;;;10.83;3.20;;;;;;;-145.14;100.00;70583.66;4973767;28;20634;-75
2022/02/18 03:17:25;;;;;;;10.90;2.70;;;;;;;-145.14;100.00;70583.66;4976957;28;20912;-75
2022/02/18 03:19:50;;;;;;;11.63;3.10;;;;;;;-145.14;100.00;70583.66;4975331;28;20284;-75
2022/02/18 03:22:16;;;;;;;15.00;3.17;;;;;;;-145.14;100.00;70583.66;4975826;28;21306;-75
2022/02/18 03:24:42;;;;;;;16.47;3.07;;;;;;;-145.14;100.00;70583.66;4977022;28;20186;-75
2022/02/18 03:27:08;;;;;;;11.27;3.07;;;;;;;-145.14;100.00;70583.66;4979787;28;21223;-74
2022/02/18 03:29:33;;;;;;;16.63;3.13;;;;;;;-145.14;100.00;70583.66;4978089;28;20449;-75
2022/02/18 03:31:59;;;;;;;7.70;2.60;;;;;;;-145.14;100.00;70583.66;4975378;28;20280;-76
2022/02/18 03:34:25;;;;;;;6.83;1.70;;;;;;;-145.14;100.00;70583.66;4980021;28;20272;-75
2022/02/18 03:36:50;;;;;;;14.03;2.33;;;;;;;-145.14;100.00;70583.66;4976087;28;20214;-76
2022/02/18 03:39:16;;;;;;;14.83;2.50;;;;;;;-145.14;100.00;70583.66;4975907;28;20283;-75
2022/02/18 03:41:41;;;;;;;8.10;2.03;;;;;;;-145.14;100.00;70583.66;4976732;28;20197;-75
2022/02/18 03:44:07;;;;;;;12.13;2.17;;;;;;;-145.14;100.00;70583.66;4973822;28;20186;-75
2022/02/18 03:46:33;;;;;;;9.43;2.10;;;;;;;-145.14;100.00;70583.66;4977391;28;20206;-76
2022/02/18 03:48:58;;;;;;;7.07;2.03;;;;;;;-145.14;100.00;70583.66;4976823;28;20285;-75
2022/02/18 03:51:24;;;;;;;6.73;2.10;;;;;;;-145.14;100.00;70583.66;4974978;28;20533;-76
2022/02/18 03:53:50;;;;;;;11.20;2.00;;;;;;;-145.14;100.00;70583.66;4977892;28;20315;-75
2022/02/18 03:56:17;;;;;;;8.73;2.10;;;;;;;-145.14;100.00;70583.66;4975557;28;20214;-76
2022/02/18 03:58:42;;;;;;;11.20;1.83;;;;;;;-145.14;100.00;70583.66;4978502;28;20592;-75
2022/02/18 04:01:08;;;;;;;8.10;2.23;;;;;;;-145.14;100.00;70583.66;4974822;28;20449;-75
2022/02/18 04:03:33;;;;;;;11.77;2.20;;;;;;;-145.14;100.00;70583.66;4976278;28;20654;-75
2022/02/18 04:05:59;;;;;;;7.33;1.60;;;;;;;-145.14;100.00;70583.66;4973742;28;20330;-76
2022/02/18 04:08:24;;;;;;;7.77;2.07;;;;;;;-145.14;100.00;70583.66;4988439;28;20205;-75
2022/02/18 04:10:50;;;;;;;8.97;2.10;;;;;;;-145.14;100.00;70583.66;4974615;28;20344;-75
2022/02/18 04:13:16;;;;;;;13.73;2.27;;;;;;;-145.14;100.00;70583.66;4975305;28;20209;-75
2022/02/18 04:15:41;;;;;;;7.50;1.90;;;;;;;-145.14;100.00;70583.66;4973103;28;20211;-75
2022/02/18 04:18:07;;;;;;;13.93;2.40;;;;;;;-145.14;100.00;70583.66;4974244;28;20576;-75
2022/02/18 04:20:33;;;;;;;7.30;1.83;;;;;;;-145.14;100.00;70583.66;4975707;28;20233;-75
2022/02/18 04:22:58;;;;;;;13.33;2.20;;;;;;;-145.14;100.00;70583.66;4974564;28;20197;-75
2022/02/18 04:25:24;;;;;;;5.10;1.53;;;;;;;-145.14;100.00;70583.66;4974238;28;20218;-75
2022/02/18 04:27:54;;;;;;;9.80;2.90;;;;;;;-145.14;100.00;70583.66;4981324;28;20193;-75
2022/02/18 04:30:20;;;;;;;6.83;1.83;;;;;;;-145.14;100.00;70583.66;4977412;28;20217;-75
2022/02/18 04:32:46;;;;;;;10.40;1.67;;;;;;;-145.14;100.00;70583.66;4976779;28;20576;-75
2022/02/18 04:35:12;;;;;;;10.70;2.77;;;;;;;-145.14;100.00;70583.66;4975025;28;20463;-75
2022/02/18 04:37:37;;;;;;;9.10;1.97;;;;;;;-145.14;100.00;70583.66;4976863;28;20185;-75
2022/02/18 04:40:03;;;;;;;17.50;2.57;;;;;;;-145.14;100.00;70583.66;4975338;28;20256;-75
2022/02/18 04:42:29;;;;;;;11.50;2.47;;;;;;;-145.14;100.00;70583.66;4975737;28;20382;-75
2022/02/18 04:44:54;;;;;;;10.23;2.13;;;;;;;-145.14;100.00;70583.66;4974259;28;20444;-75
2022/02/18 04:47:20;;;;;;;11.40;2.40;;;;;;;-145.14;100.00;70583.66;4972908;28;20183;-75
2022/02/18 04:49:46;;;;;;;8.70;2.73;;;;;;;-145.14;100.00;70583.66;4974209;28;20361;-74
2022/02/18 04:52:13;;;;;;;9.60;2.23;;;;;;;-145.14;100.00;70583.66;4974446;28;20276;-74
2022/02/18 04:54:38;;;;;;;10.43;2.57;;;;;;;-145.14;100.00;70583.66;4974174;28;20186;-75
2022/02/18 04:57:04;;;;;;;9.33;2.40;;;;;;;-145.14;100.00;70583.66;4973656;28;20471;-74
2022/02/18 04:59:29;;;;;;;15.50;2.57;;;;;;;-145.14;100.00;70583.66;4971491;28;20178;-74
2022/02/18 05:01:55;;;;;;;9.30;2.30;;;;;;;-145.14;100.00;70583.66;4971993;28;20189;-74
2022/02/18 05:04:21;;;;;;;11.83;2.70;;;;;;;-145.14;100.00;70583.66;4972743;28;20243;-74
2022/02/18 05:06:46;;;;;;;11.03;2.13;;;;;;;-145.14;100.00;70583.66;4977788;28;20205;-74
2022/02/18 05:09:12;;;;;;;13.60;2.33;;;;;;;-145.14;100.00;70583.66;4975445;28;20813;-74
2022/02/18 05:11:37;;;;;;;9.70;1.80;;;;;;;-145.14;100.00;70583.66;4978314;28;20238;-75
2022/02/18 05:14:03;;;;;;;13.87;2.00;;;;;;;-145.14;100.00;70583.66;4974227;28;20237;-74
2022/02/18 05:16:28;;;;;;;8.13;1.70;;;;;;;-145.14;100.00;70583.66;4975742;28;20216;-74
2022/02/18 05:18:55;;;;;;;12.23;1.90;;;;;;;-145.14;100.00;70583.66;4973693;28;20262;-75
2022/02/18 05:21:22;;;;;;;7.80;1.90;;;;;;;-145.14;100.00;70583.66;4969813;28;20210;-74
2022/02/18 05:23:48;;;;;;;5.13;1.77;;;;;;;-145.14;100.00;70583.66;4975609;28;20604;-75
2022/02/18 05:26:13;;;;;;;11.50;2.00;;;;;;;-145.14;100.00;70583.66;4990471;23;20586;-75
2022/02/18 05:28:39;;;;;;;9.27;1.70;;;;;;;-145.14;100.00;70583.66;4996052;28;20518;-76
2022/02/18 05:31:05;;;;;;;6.50;1.90;;;;;;;-145.14;100.00;70583.66;4994264;28;20283;-77
2022/02/18 05:33:30;;;;;;;10.50;1.90;;;;;;;-145.14;100.00;70583.66;5013847;28;20599;-77
2022/02/18 05:35:56;;;;;;;9.17;1.77;;;;;;;-145.14;100.00;70583.66;4994665;28;20205;-77
2022/02/18 05:38:21;;;;;;;7.23;2.43;;;;;;;-145.14;100.00;70583.66;4977659;28;20639;-75
2022/02/18 05:40:47;;;;;;;7.60;1.87;;;;;;;-145.14;100.00;70583.66;4977632;28;20200;-74
2022/02/18 05:43:12;;;;;;;12.40;2.50;;;;;;;-145.14;100.00;70583.66;4982609;28;20635;-74
2022/02/18 05:45:38;;;;;;;11.63;2.33;;;;;;;-145.14;100.00;70583.66;4982726;28;20846;-74
2022/02/18 05:48:04;;;;;;;8.00;1.87;;;;;;;-145.14;100.00;70583.66;4977438;28;20550;-75
2022/02/18 05:50:30;;;;;;;12.27;2.27;;;;;;;-145.14;100.00;70583.66;4980486;28;20592;-77
2022/02/18 05:52:55;;;;;;;14.33;2.37;;;;;;;-145.14;100.00;70583.66;4976289;28;20534;-78
2022/02/18 05:55:21;;;;;;;7.77;2.03;;;;;;;-145.14;100.00;70583.66;4977907;28;20195;-77
2022/02/18 05:57:46;;;;;;;11.30;2.47;;;;;;;-145.14;100.00;70583.66;4982677;28;20190;-77
2022/02/18 06:00:12;;;;;;;7.43;2.10;;;;;;;-145.14;100.00;70583.66;4975999;28;20197;-77
2022/02/18 06:02:39;;;;;;;9.90;2.17;;;;;;;-145.14;100.00;70583.66;4974363;28;20193;-77
2022/02/18 06:05:05;;;;;;;10.97;2.33;;;;;;;-145.14;100.00;70583.66;4977180;28;20484;-78
2022/02/18 06:07:31;;;;;;;12.27;2.50;;;;;;;-145.14;100.00;70583.66;4969835;28;20482;-79
2022/02/18 06:09:56;;;;;;;8.80;2.07;;;;;;;-145.14;100.00;70583.66;4971923;28;20514;-77
2022/02/18 06:12:22;;;;;;;15.43;3.40;;;;;;;-145.14;100.00;70583.66;4970365;28;20745;-76
2022/02/18 06:14:50;;;;;;;11.43;2.80;;;;;;;-145.14;100.00;70583.66;4970901;28;20205;-76
2022/02/18 06:17:17;;;;;;;9.27;2.83;;;;;;;-145.14;100.00;70583.66;4959441;28;20259;-77
2022/02/18 06:19:46;;;;;;;14.43;3.27;;;;;;;-145.14;100.00;70583.66;4971809;28;20928;-77
2022/02/18 06:22:11;;;;;;;17.70;2.87;;;;;;;-145.14;100.00;70583.66;4975737;28;20440;-79
2022/02/18 06:24:37;;;;;;;19.13;3.83;;;;;;;-145.14;100.00;70583.66;4980031;28;20999;-78
2022/02/18 06:27:03;;;;;;;16.40;3.57;;;;;;;-145.14;100.00;70583.66;4979905;28;20265;-76
2022/02/18 06:29:29;;;;;;;11.07;3.37;;;;;;;-145.14;100.00;70583.66;4976544;28;20514;-77
2022/02/18 06:31:56;;;;;;;12.90;4.33;;;;;;;-145.14;100.00;70583.66;4974771;28;20990;-78
2022/02/18 06:34:22;;;;;;;19.30;3.27;;;;;;;-145.14;100.00;70583.66;4972086;28;20860;-77
2022/02/18 06:36:51;;;;;;;17.30;3.80;;;;;;;-145.14;100.00;70583.66;4965841;28;20475;-78
2022/02/18 06:39:16;;;;;;;10.07;3.17;;;;;;;-145.14;100.00;70583.66;4971658;28;20562;-77
2022/02/18 06:41:42;;;;;;;15.13;3.07;;;;;;;-145.14;100.00;70583.66;4974858;28;20441;-78
2022/02/18 06:44:09;;;;;;;16.97;3.37;;;;;;;-145.14;100.00;70583.66;4969612;28;21129;-78
2022/02/18 06:46:34;;;;;;;15.83;3.80;;;;;;;-145.14;100.00;70583.66;4973758;28;20209;-80
2022/02/18 06:49:00;;;;;;;11.40;3.60;;;;;;;-145.14;100.00;70583.66;4974716;28;20449;-78
2022/02/18 06:51:25;;;;;;;12.20;3.17;;;;;;;-145.14;100.00;70583.66;4971733;28;20547;-79
2022/02/18 06:53:50;;;;;;;20.03;3.90;;;;;;;-145.14;100.00;70583.66;4965446;28;20213;-79
2022/02/18 06:56:16;;;;;;;14.37;3.43;;;;;;;-145.14;100.00;70583.66;4964938;28;20220;-78
2022/02/18 06:58:41;;;;;;;14.73;3.80;;;;;;;-145.14;100.00;70583.66;4975281;28;20225;-79
2022/02/18 07:01:07;;;;;;;15.23;3.90;;;;;;;-145.14;100.00;70583.66;4971556;28;20261;-78
2022/02/18 07:03:33;;;;;;;13.30;3.60;;;;;;;-145.14;100.00;70583.66;4976541;28;20577;-78
2022/02/18 07:06:02;;;;;;;16.00;3.63;;;;;;;-145.14;100.00;70583.66;4971590;28;20232;-79
2022/02/18 07:08:28;;;;;;;17.57;3.80;;;;;;;-145.14;100.00;70583.66;4974363;28;20444;-78
2022/02/18 07:10:54;;;;;;;11.90;3.40;;;;;;;-145.14;100.00;70583.66;4969979;28;20446;-79
2022/02/18 07:13:19;;;;;;;15.87;3.63;;;;;;;-145.14;100.00;70583.66;4972332;28;20483;-78
2022/02/18 07:15:45;;;;;;;10.40;3.50;;;;;;;-145.14;100.00;70583.66;4973556;28;20313;-78
2022/02/18 07:18:11;;;;;;;9.30;2.97;;;;;;;-145.14;100.00;70583.66;4973833;28;20256;-78
2022/02/18 07:20:37;;;;;;;6.70;2.17;;;;;;;-145.14;100.00;70583.66;4971236;28;20190;-79
2022/02/18 07:23:04;;;;;;;8.33;3.47;;;;;;;-145.14;100.00;70583.66;4975025;28;20436;-78
2022/02/18 07:25:30;;;;;;;7.50;2.83;;;;;;;-145.14;100.00;70583.66;4972136;28;20197;-76
2022/02/18 07:27:56;;;;;;;12.33;3.60;;;;;;;-145.14;100.00;70583.66;4976687;28;20425;-77
2022/02/18 07:30:21;;;;;;;13.30;3.50;;;;;;;-145.14;100.00;70583.66;4976645;28;20190;-76
2022/02/18 07:32:48;;;;;;;13.67;3.10;;;;;;;-145.14;100.00;70583.66;4986745;28;20213;-76
2022/02/18 07:35:13;;;;;;;10.17;2.80;;;;;;;-145.14;100.00;70583.66;4972271;28;20569;-77
2022/02/18 07:37:39;;;;;;;10.30;3.10;;;;;;;-145.14;100.00;70583.66;4976379;28;20456;-77
2022/02/18 07:40:05;;;;;;;13.30;3.40;;;;;;;-145.14;100.00;70583.66;4973178;28;20267;-77
2022/02/18 07:42:31;;;;;;;12.87;3.50;;;;;;;-145.14;100.00;70583.66;4974626;28;20217;-77
2022/02/18 07:44:56;;;;;;;9.23;3.17;;;;;;;-145.14;100.00;70583.66;4980618;28;20533;-77
2022/02/18 07:47:22;;;;;;;14.07;4.50;;;;;;;-145.14;100.00;70583.66;4979828;28;20215;-77
2022/02/18 07:49:48;;;;;;;12.70;3.27;;;;;;;-145.14;100.00;70583.66;4978726;28;20705;-77
2022/02/18 07:52:15;;;;;;;13.43;3.00;;;;;;;-145.14;100.00;70583.66;4979005;28;20599;-77
2022/02/18 07:54:40;;;;;;;8.87;2.87;;;;;;;-145.14;100.00;70583.66;4974683;28;20845;-78
2022/02/18 07:57:06;;;;;;;14.73;3.27;;;;;;;-145.14;100.00;70583.66;4974373;28;20579;-78
2022/02/18 07:59:32;;;;;;;17.10;3.80;;;;;;;-145.14;100.00;70583.66;4976013;28;20197;-79
2022/02/18 08:01:57;;;;;;;15.20;3.63;;;;;;;-145.14;100.00;70583.66;4973378;28;20825;-78
2022/02/18 08:04:23;;;;;;;15.73;3.77;;;;;;;-145.14;100.00;70583.66;4971403;28;20325;-78
2022/02/18 08:06:48;;;;;;;13.17;3.47;;;;;;;-145.14;100.00;70583.66;4972398;28;20213;-78
2022/02/18 08:09:14;;;;;;;16.53;4.77;;;;;;;-145.14;100.00;70583.66;4976885;28;20193;-77
2022/02/18 08:11:39;;;;;;;11.70;4.10;;;;;;;-145.14;100.00;70583.66;4976058;28;20190;-78
2022/02/18 08:14:05;;;;;;;12.67;4.00;;;;;;;-145.14;100.00;70583.66;4976350;28;20308;-78
2022/02/18 08:16:32;;;;;;;11.40;4.17;;;;;;;-145.14;100.00;70583.66;4976057;28;20237;-80
2022/02/18 08:18:58;;;;;;;12.47;3.93;;;;;;;-145.14;100.00;70583.66;4971280;28;20292;-80
2022/02/18 08:21:24;;;;;;;13.63;3.70;;;;;;;-145.14;100.00;70583.66;4983640;28;20441;-79
2022/02/18 08:23:52;;;;;;;10.80;3.33;;;;;;;-145.14;100.00;70583.66;4975985;28;20433;-79
2022/02/18 08:26:19;;;;;;;15.33;3.77;;;;;;;-145.14;100.00;70583.66;4974346;28;20468;-78
2022/02/18 08:28:45;;;;;;;7.60;3.40;;;;;;;-145.14;100.00;70583.66;4974553;28;20441;-77
2022/02/18 08:31:10;;;;;;;9.93;3.50;;;;;;;-145.14;100.00;70583.66;4976496;28;20444;-79
2022/02/18 08:33:36;;;;;;;16.20;3.70;;;;;;;-145.14;100.00;70583.66;4976939;28;20228;-78
2022/02/18 08:36:04;;;;;;;12.33;3.57;;;;;;;-145.14;100.00;70583.66;4975818;28;20304;-78
2022/02/18 08:38:29;;;;;;;14.53;4.77;;;;;;;-145.14;100.00;70583.66;4968484;28;20990;-78
2022/02/18 08:40:55;;;;;;;17.70;4.10;;;;;;;-145.14;100.00;70583.66;4973685;28;20555;-80
2022/02/18 08:43:20;;;;;;;12.10;4.20;;;;;;;-145.14;100.00;70583.66;4975964;28;20186;-79
2022/02/18 08:45:46;;;;;;;12.87;4.40;;;;;;;-145.14;100.00;70583.66;4975091;28;20206;-78
2022/02/18 08:48:12;;;;;;;18.20;4.80;;;;;;;-145.14;100.00;70583.66;4974609;28;20702;-78
2022/02/18 08:50:37;;;;;;;16.20;4.43;;;;;;;-145.14;100.00;70583.66;4970765;28;20573;-78
2022/02/18 08:53:03;;;;;;;10.70;4.50;;;;;;;-145.14;100.00;70583.66;4956844;28;20220;-78
2022/02/18 08:55:29;;;;;;;16.27;4.93;;;;;;;-145.14;100.00;70583.66;4973519;28;20561;-79
2022/02/18 08:57:57;;;;;;;18.30;5.83;;;;;;;-145.14;100.00;70583.66;4983506;28;20184;-78
2022/02/18 09:00:23;;;;;;;17.67;5.13;;;;;;;-145.14;100.00;70583.66;4973534;28;20511;-79
2022/02/18 09:02:50;;;;;;;16.57;4.60;;;;;;;-145.14;100.00;70583.66;4980371;28;20476;-80
2022/02/18 09:05:16;;;;;;;17.67;5.70;;;;;;;-145.14;100.00;70583.66;4972193;28;20448;-80
2022/02/18 09:07:44;;;;;;;14.57;5.57;;;;;;;-145.14;100.00;70583.66;4976425;28;20554;-80
2022/02/18 09:10:12;;;;;;;21.07;5.97;;;;;;;-145.14;100.00;70583.66;4981280;28;20440;-78
2022/02/18 09:12:40;;;;;;;15.07;5.63;;;;;;;-145.14;100.00;70583.66;4979589;28;20465;-80
2022/02/18 09:15:06;;;;;;;19.40;6.03;;;;;;;-145.14;100.00;70583.66;4986156;28;20591;-79
2022/02/18 09:17:32;;;;;;;19.27;6.17;;;;;;;-145.14;100.00;70583.66;4995144;28;20453;-80
2022/02/18 09:19:58;;;;;;;22.37;5.90;;;;;;;-145.14;100.00;70583.66;4975113;28;20449;-78
2022/02/18 09:22:25;;;;;;;19.37;6.10;;;;;;;-145.14;100.00;70583.66;4989161;28;20445;-78
2022/02/18 09:24:51;;;;;;;19.30;6.17;;;;;;;-145.14;100.00;70583.66;4973509;28;20448;-78
2022/02/18 09:27:17;;;;;;;14.83;5.33;;;;;;;-145.14;100.00;70583.66;4970983;28;20496;-77
2022/02/18 09:29:42;;;;;;;21.13;6.93;;;;;;;-145.14;100.00;70583.66;4973335;28;20883;-79
2022/02/18 09:32:08;;;;;;;13.87;4.83;;;;;;;-145.14;100.00;70583.66;4971375;28;20276;-79
2022/02/18 09:34:34;;;;;;;18.97;5.80;;;;;;;-145.14;100.00;70583.66;4978992;28;20200;-80
2022/02/18 09:36:59;;;;;;;17.70;5.30;;;;;;;-145.14;100.00;70583.66;4979892;28;20666;-79
2022/02/18 09:39:25;;;;;;;17.23;5.27;;;;;;;-145.14;100.00;70583.66;4973056;28;20267;-79
2022/02/18 09:41:51;;;;;;;13.03;5.10;;;;;;;-145.14;100.00;70583.66;4973975;28;20185;-78
2022/02/18 09:44:18;;;;;;;17.00;5.70;;;;;;;-145.14;100.00;70583.66;4980514;28;20449;-79
2022/02/18 09:46:45;;;;;;;22.13;5.87;;;;;;;-145.14;100.00;70583.66;4976806;28;20221;-79
2022/02/18 09:49:12;;;;;;;9.97;5.07;;;;;;;-145.14;100.00;70583.66;4979507;28;20448;-77
2022/02/18 09:51:38;;;;;;;13.87;4.53;;;;;;;-145.14;100.00;70583.66;4975846;28;20549;-78
2022/02/18 09:54:05;;;;;;;12.03;4.50;;;;;;;-145.14;100.00;70583.66;4981477;28;20472;-78
2022/02/18 09:56:33;;;;;;;14.10;4.80;;;;;;;-145.14;100.00;70583.66;4979128;28;20483;-79
2022/02/18 09:59:01;;;;;;;16.33;4.60;;;;;;;-145.14;100.00;70583.66;4978384;28;20467;-79
2022/02/18 10:01:27;;;;;;;12.23;4.10;;;;;;;-145.14;100.00;70583.66;4975158;28;20448;-76
2022/02/18 10:03:53;;;;;;;17.80;4.03;;;;;;;-145.14;100.00;70583.66;4970879;28;20436;-77
2022/02/18 10:06:18;;;;;;;10.40;3.63;;;;;;;-145.14;100.00;70583.66;4975848;28;20960;-80
2022/02/18 10:08:50;;;;;;;8.53;3.80;;;;;;;-145.14;100.00;70583.66;4980166;28;20658;-74
2022/02/18 10:11:17;;;;;;;8.90;4.03;;;;;;;-145.14;100.00;70583.66;4977368;28;20679;-75
2022/02/18 10:13:47;;;;;;;11.33;3.97;;;;;;;-145.14;100.00;70583.66;4972966;28;20588;-72
2022/02/18 10:16:23;;;;;;;10.77;3.27;;;;;;;-145.14;100.00;70583.66;4970695;28;20460;-76
2022/02/18 10:18:52;;;;;;;10.27;3.73;;;;;;;-145.14;100.00;70583.66;4990476;28;20446;-77
2022/02/18 10:21:23;;;;;;;11.50;3.80;;;;;;;-145.14;100.00;70583.66;4974860;28;20828;-73
2022/02/18 10:23:50;;;;;;;9.27;3.70;;;;;;;-145.14;100.00;70583.66;4975263;28;20440;-73
2022/02/18 10:26:16;;;;;;;5.63;3.10;;;;;;;-145.14;100.00;70583.66;4970407;28;20487;-73
2022/02/18 10:28:55;;;;;;;13.10;4.30;;;;;;;-145.14;100.00;70583.66;4971997;28;20495;-73
2022/02/18 10:31:20;;;;;;;11.20;4.65;;;;;;;-145.14;100.00;70583.66;4976128;28;20933;-74
2022/02/18 10:34:00;;;;;;;9.77;3.73;;;;;;;-145.14;100.00;70583.66;4973832;28;20496;-74
2022/02/18 10:36:44;;;;;;;9.30;3.73;;;;;;;-145.14;100.00;70583.66;4972183;28;20209;-75
2022/02/18 10:39:28;;;;;;;15.33;3.50;;;;;;;-145.14;100.00;70583.66;4974282;28;20480;-83
2022/02/18 10:41:59;;;;;;;12.40;4.30;;;;;;;-145.14;100.00;70583.66;4975645;28;20537;-75
2022/02/18 10:44:29;;;;;;;8.00;3.90;;;;;;;-145.14;100.00;70583.66;4973048;28;21230;-76
2022/02/18 10:46:57;;;;;;;8.43;4.03;;;;;;;-145.14;100.00;70583.66;4975932;28;20460;-75
2022/02/18 10:49:26;;;;;;;13.83;5.33;;;;;;;-145.14;100.00;70583.66;4973292;28;20861;-78
2022/02/18 10:51:53;;;;;;;8.45;4.05;;;;;;;-145.14;100.00;70583.66;4973375;28;20429;-73
2022/02/18 10:54:32;;;;;;;9.43;4.30;;;;;;;-145.14;100.00;70583.66;4974266;28;20465;-72
2022/02/18 10:57:20;;;;;;;10.17;4.70;;;;;;;-145.14;100.00;70583.66;4972003;28;20913;-76
2022/02/18 10:59:47;;;;;;;11.83;3.90;;;;;;;-145.14;100.00;70583.66;4977233;28;20452;-76